sensor_id;sensor_type;location;lat;lon;timestamp;temperature;humidity
80228;DHT22;69539;42.138;24.742;2023-06-19T00:00:52;25.20;42.90
80228;DHT22;69539;42.138;24.742;2023-06-19T00:03:17;25.20;42.90
80228;DHT22;69539;42.138;24.742;2023-06-19T00:05:43;25.20;43.00
80228;DHT22;69539;42.138;24.742;2023-06-19T00:08:09;25.10;43.00
80228;DHT22;69539;42.138;24.742;2023-06-19T00:10:35;25.10;43.00
80228;DHT22;69539;42.138;24.742;2023-06-19T00:13:00;25.10;44.20
80228;DHT22;69539;42.138;24.742;2023-06-19T00:15:26;25.10;43.10
80228;DHT22;69539;42.138;24.742;2023-06-19T00:17:55;25.00;43.10
80228;DHT22;69539;42.138;24.742;2023-06-19T00:20:21;25.00;43.10
80228;DHT22;69539;42.138;24.742;2023-06-19T00:22:47;25.00;43.20
80228;DHT22;69539;42.138;24.742;2023-06-19T00:25:17;25.00;43.20
80228;DHT22;69539;42.138;24.742;2023-06-19T00:27:43;25.00;43.20
80228;DHT22;69539;42.138;24.742;2023-06-19T00:30:09;25.00;43.20
80228;DHT22;69539;42.138;24.742;2023-06-19T00:32:35;25.00;43.20
80228;DHT22;69539;42.138;24.742;2023-06-19T00:35:14;25.00;43.20
80228;DHT22;69539;42.138;24.742;2023-06-19T00:37:41;25.00;43.20
80228;DHT22;69539;42.138;24.742;2023-06-19T00:40:16;25.00;43.20
80228;DHT22;69539;42.138;24.742;2023-06-19T00:42:44;25.00;43.20
80228;DHT22;69539;42.138;24.742;2023-06-19T00:45:10;24.90;43.10
80228;DHT22;69539;42.138;24.742;2023-06-19T00:47:36;24.90;43.30
80228;DHT22;69539;42.138;24.742;2023-06-19T00:50:02;24.90;43.10
80228;DHT22;69539;42.138;24.742;2023-06-19T00:52:28;24.80;43.10
80228;DHT22;69539;42.138;24.742;2023-06-19T00:54:54;24.80;43.10
80228;DHT22;69539;42.138;24.742;2023-06-19T00:57:19;24.80;43.10
80228;DHT22;69539;42.138;24.742;2023-06-19T00:59:45;24.80;43.10
80228;DHT22;69539;42.138;24.742;2023-06-19T01:02:11;24.80;43.00
80228;DHT22;69539;42.138;24.742;2023-06-19T01:04:36;24.80;43.20
80228;DHT22;69539;42.138;24.742;2023-06-19T01:07:09;24.80;43.20
80228;DHT22;69539;42.138;24.742;2023-06-19T01:09:56;24.80;43.10
80228;DHT22;69539;42.138;24.742;2023-06-19T01:12:29;24.70;43.00
80228;DHT22;69539;42.138;24.742;2023-06-19T01:15:00;24.70;43.00
80228;DHT22;69539;42.138;24.742;2023-06-19T01:17:29;24.70;43.00
80228;DHT22;69539;42.138;24.742;2023-06-19T01:19:59;24.70;43.00
80228;DHT22;69539;42.138;24.742;2023-06-19T01:22:28;24.70;43.00
80228;DHT22;69539;42.138;24.742;2023-06-19T01:24:54;24.60;43.00
80228;DHT22;69539;42.138;24.742;2023-06-19T01:27:20;24.60;43.00
80228;DHT22;69539;42.138;24.742;2023-06-19T01:29:46;24.60;43.00
80228;DHT22;69539;42.138;24.742;2023-06-19T01:34:54;24.60;43.00
80228;DHT22;69539;42.138;24.742;2023-06-19T01:37:24;24.50;43.00
80228;DHT22;69539;42.138;24.742;2023-06-19T01:39:56;24.50;43.00
80228;DHT22;69539;42.138;24.742;2023-06-19T01:42:22;24.50;43.00
80228;DHT22;69539;42.138;24.742;2023-06-19T01:44:50;24.50;43.20
80228;DHT22;69539;42.138;24.742;2023-06-19T01:47:15;24.50;43.10
80228;DHT22;69539;42.138;24.742;2023-06-19T01:49:46;24.50;43.30
80228;DHT22;69539;42.138;24.742;2023-06-19T01:52:11;24.50;43.20
80228;DHT22;69539;42.138;24.742;2023-06-19T01:54:38;24.50;43.10
80228;DHT22;69539;42.138;24.742;2023-06-19T01:57:03;24.50;43.10
80228;DHT22;69539;42.138;24.742;2023-06-19T01:59:29;24.40;44.10
80228;DHT22;69539;42.138;24.742;2023-06-19T02:01:55;24.50;43.10
80228;DHT22;69539;42.138;24.742;2023-06-19T02:04:20;24.40;43.00
80228;DHT22;69539;42.138;24.742;2023-06-19T02:06:46;24.40;43.00
80228;DHT22;69539;42.138;24.742;2023-06-19T02:09:12;24.40;43.00
80228;DHT22;69539;42.138;24.742;2023-06-19T02:11:37;24.40;43.10
80228;DHT22;69539;42.138;24.742;2023-06-19T02:14:03;24.40;43.10
80228;DHT22;69539;42.138;24.742;2023-06-19T02:16:29;24.40;43.00
80228;DHT22;69539;42.138;24.742;2023-06-19T02:18:54;24.40;43.00
80228;DHT22;69539;42.138;24.742;2023-06-19T02:21:22;24.40;42.90
80228;DHT22;69539;42.138;24.742;2023-06-19T02:23:48;24.40;44.00
80228;DHT22;69539;42.138;24.742;2023-06-19T02:26:13;24.40;43.00
80228;DHT22;69539;42.138;24.742;2023-06-19T02:28:39;24.30;43.20
80228;DHT22;69539;42.138;24.742;2023-06-19T02:31:05;24.30;42.90
80228;DHT22;69539;42.138;24.742;2023-06-19T02:33:30;24.30;42.90
80228;DHT22;69539;42.138;24.742;2023-06-19T02:35:57;24.30;42.80
80228;DHT22;69539;42.138;24.742;2023-06-19T02:38:25;24.30;42.80
80228;DHT22;69539;42.138;24.742;2023-06-19T02:40:51;24.30;42.80
80228;DHT22;69539;42.138;24.742;2023-06-19T02:43:16;24.30;42.70
80228;DHT22;69539;42.138;24.742;2023-06-19T02:45:42;24.30;42.70
80228;DHT22;69539;42.138;24.742;2023-06-19T02:48:08;24.30;42.70
80228;DHT22;69539;42.138;24.742;2023-06-19T02:50:33;24.30;42.70
80228;DHT22;69539;42.138;24.742;2023-06-19T02:52:59;24.30;42.70
80228;DHT22;69539;42.138;24.742;2023-06-19T02:55:25;24.30;42.60
80228;DHT22;69539;42.138;24.742;2023-06-19T02:57:51;24.30;42.60
80228;DHT22;69539;42.138;24.742;2023-06-19T03:00:16;24.30;42.60
80228;DHT22;69539;42.138;24.742;2023-06-19T03:02:43;24.30;42.60
80228;DHT22;69539;42.138;24.742;2023-06-19T03:05:11;24.30;42.60
80228;DHT22;69539;42.138;24.742;2023-06-19T03:07:40;24.30;42.60
80228;DHT22;69539;42.138;24.742;2023-06-19T03:10:06;24.30;42.70
80228;DHT22;69539;42.138;24.742;2023-06-19T03:12:31;24.30;42.60
80228;DHT22;69539;42.138;24.742;2023-06-19T03:14:57;24.30;42.60
80228;DHT22;69539;42.138;24.742;2023-06-19T03:17:22;24.30;42.60
80228;DHT22;69539;42.138;24.742;2023-06-19T03:19:48;24.30;42.70
80228;DHT22;69539;42.138;24.742;2023-06-19T03:22:14;24.30;42.60
80228;DHT22;69539;42.138;24.742;2023-06-19T03:24:39;24.30;42.70
80228;DHT22;69539;42.138;24.742;2023-06-19T03:27:05;24.30;42.70
80228;DHT22;69539;42.138;24.742;2023-06-19T03:29:31;24.30;42.80
80228;DHT22;69539;42.138;24.742;2023-06-19T03:31:57;24.30;42.80
80228;DHT22;69539;42.138;24.742;2023-06-19T03:34:22;24.30;42.70
80228;DHT22;69539;42.138;24.742;2023-06-19T03:36:48;24.40;42.70
80228;DHT22;69539;42.138;24.742;2023-06-19T03:39:14;24.40;42.70
80228;DHT22;69539;42.138;24.742;2023-06-19T03:41:39;24.50;42.70
80228;DHT22;69539;42.138;24.742;2023-06-19T03:44:05;24.50;42.60
80228;DHT22;69539;42.138;24.742;2023-06-19T03:46:31;24.60;42.50
80228;DHT22;69539;42.138;24.742;2023-06-19T03:48:56;24.60;42.40
80228;DHT22;69539;42.138;24.742;2023-06-19T03:51:22;24.60;42.20
80228;DHT22;69539;42.138;24.742;2023-06-19T03:53:47;24.70;42.30
80228;DHT22;69539;42.138;24.742;2023-06-19T03:56:13;24.80;42.20
80228;DHT22;69539;42.138;24.742;2023-06-19T03:58:39;24.80;42.10
80228;DHT22;69539;42.138;24.742;2023-06-19T04:01:04;24.90;42.00
80228;DHT22;69539;42.138;24.742;2023-06-19T04:03:31;24.90;41.90
80228;DHT22;69539;42.138;24.742;2023-06-19T04:05:56;25.00;41.80
80228;DHT22;69539;42.138;24.742;2023-06-19T04:08:22;25.10;41.60
80228;DHT22;69539;42.138;24.742;2023-06-19T04:10:47;25.10;41.40
80228;DHT22;69539;42.138;24.742;2023-06-19T04:13:13;25.20;41.40
80228;DHT22;69539;42.138;24.742;2023-06-19T04:15:39;25.30;41.30
80228;DHT22;69539;42.138;24.742;2023-06-19T04:18:04;25.40;41.20
80228;DHT22;69539;42.138;24.742;2023-06-19T04:20:30;25.40;41.00
80228;DHT22;69539;42.138;24.742;2023-06-19T04:22:56;25.50;40.90
80228;DHT22;69539;42.138;24.742;2023-06-19T04:25:22;25.60;40.80
80228;DHT22;69539;42.138;24.742;2023-06-19T04:27:47;25.70;40.90
80228;DHT22;69539;42.138;24.742;2023-06-19T04:30:13;25.70;40.80
80228;DHT22;69539;42.138;24.742;2023-06-19T04:32:39;25.80;40.60
80228;DHT22;69539;42.138;24.742;2023-06-19T04:35:07;25.90;40.60
80228;DHT22;69539;42.138;24.742;2023-06-19T04:37:33;26.00;40.50
80228;DHT22;69539;42.138;24.742;2023-06-19T04:39:58;26.00;40.40
80228;DHT22;69539;42.138;24.742;2023-06-19T04:42:25;26.10;40.30
80228;DHT22;69539;42.138;24.742;2023-06-19T04:44:52;26.20;40.30
80228;DHT22;69539;42.138;24.742;2023-06-19T04:47:21;26.30;40.20
80228;DHT22;69539;42.138;24.742;2023-06-19T04:49:47;26.40;40.10
80228;DHT22;69539;42.138;24.742;2023-06-19T04:52:13;26.50;40.00
80228;DHT22;69539;42.138;24.742;2023-06-19T04:54:38;26.60;40.00
80228;DHT22;69539;42.138;24.742;2023-06-19T04:57:04;26.60;40.00
80228;DHT22;69539;42.138;24.742;2023-06-19T04:59:30;26.70;39.90
80228;DHT22;69539;42.138;24.742;2023-06-19T05:01:59;26.80;39.50
80228;DHT22;69539;42.138;24.742;2023-06-19T05:04:25;26.90;39.60
80228;DHT22;69539;42.138;24.742;2023-06-19T05:06:51;27.00;40.40
80228;DHT22;69539;42.138;24.742;2023-06-19T05:09:16;27.10;39.40
80228;DHT22;69539;42.138;24.742;2023-06-19T05:11:42;27.20;39.40
80228;DHT22;69539;42.138;24.742;2023-06-19T05:14:08;27.30;38.90
80228;DHT22;69539;42.138;24.742;2023-06-19T05:16:34;27.40;39.10
80228;DHT22;69539;42.138;24.742;2023-06-19T05:19:00;27.50;39.00
80228;DHT22;69539;42.138;24.742;2023-06-19T05:21:25;27.60;38.80
80228;DHT22;69539;42.138;24.742;2023-06-19T05:23:51;27.70;38.40
80228;DHT22;69539;42.138;24.742;2023-06-19T05:26:21;27.80;38.30
80228;DHT22;69539;42.138;24.742;2023-06-19T05:28:48;27.90;38.50
80228;DHT22;69539;42.138;24.742;2023-06-19T05:31:14;28.00;38.00
80228;DHT22;69539;42.138;24.742;2023-06-19T05:33:40;28.20;38.00
80228;DHT22;69539;42.138;24.742;2023-06-19T05:36:07;28.20;37.80
80228;DHT22;69539;42.138;24.742;2023-06-19T05:38:32;28.40;37.50
80228;DHT22;69539;42.138;24.742;2023-06-19T05:40:58;28.50;37.70
80228;DHT22;69539;42.138;24.742;2023-06-19T05:43:25;28.60;37.60
80228;DHT22;69539;42.138;24.742;2023-06-19T05:45:51;28.70;37.40
80228;DHT22;69539;42.138;24.742;2023-06-19T05:48:17;28.80;37.20
80228;DHT22;69539;42.138;24.742;2023-06-19T05:50:43;28.90;37.20
80228;DHT22;69539;42.138;24.742;2023-06-19T05:53:08;29.00;36.40
80228;DHT22;69539;42.138;24.742;2023-06-19T05:55:34;29.10;36.10
80228;DHT22;69539;42.138;24.742;2023-06-19T05:58:00;29.30;36.10
80228;DHT22;69539;42.138;24.742;2023-06-19T06:00:26;29.40;35.60
80228;DHT22;69539;42.138;24.742;2023-06-19T06:02:51;29.50;35.20
80228;DHT22;69539;42.138;24.742;2023-06-19T06:05:18;29.50;35.00
80228;DHT22;69539;42.138;24.742;2023-06-19T06:07:46;29.60;35.00
80228;DHT22;69539;42.138;24.742;2023-06-19T06:10:11;29.70;34.60
80228;DHT22;69539;42.138;24.742;2023-06-19T06:12:37;29.90;34.70
80228;DHT22;69539;42.138;24.742;2023-06-19T06:15:05;29.90;34.30
80228;DHT22;69539;42.138;24.742;2023-06-19T06:17:31;30.00;34.20
80228;DHT22;69539;42.138;24.742;2023-06-19T06:19:56;30.10;34.00
80228;DHT22;69539;42.138;24.742;2023-06-19T06:22:22;30.20;34.10
80228;DHT22;69539;42.138;24.742;2023-06-19T06:24:47;30.30;33.50
80228;DHT22;69539;42.138;24.742;2023-06-19T06:27:13;30.40;32.60
80228;DHT22;69539;42.138;24.742;2023-06-19T06:29:39;30.50;32.60
80228;DHT22;69539;42.138;24.742;2023-06-19T06:32:06;30.60;32.40
80228;DHT22;69539;42.138;24.742;2023-06-19T06:34:33;30.70;32.10
80228;DHT22;69539;42.138;24.742;2023-06-19T06:36:59;30.80;31.80
80228;DHT22;69539;42.138;24.742;2023-06-19T06:39:25;30.90;31.80
80228;DHT22;69539;42.138;24.742;2023-06-19T06:41:51;31.00;33.00
80228;DHT22;69539;42.138;24.742;2023-06-19T06:44:17;31.00;32.70
80228;DHT22;69539;42.138;24.742;2023-06-19T06:46:43;31.20;32.20
80228;DHT22;69539;42.138;24.742;2023-06-19T06:49:08;31.20;31.80
80228;DHT22;69539;42.138;24.742;2023-06-19T06:51:34;31.40;31.90
80228;DHT22;69539;42.138;24.742;2023-06-19T06:53:59;31.50;31.60
80228;DHT22;69539;42.138;24.742;2023-06-19T06:56:25;31.60;31.50
80228;DHT22;69539;42.138;24.742;2023-06-19T06:58:51;31.70;31.20
80228;DHT22;69539;42.138;24.742;2023-06-19T07:01:17;31.80;31.20
80228;DHT22;69539;42.138;24.742;2023-06-19T07:03:42;31.90;30.90
80228;DHT22;69539;42.138;24.742;2023-06-19T07:06:08;32.00;30.80
80228;DHT22;69539;42.138;24.742;2023-06-19T07:08:34;32.10;30.80
80228;DHT22;69539;42.138;24.742;2023-06-19T07:11:00;32.30;31.00
80228;DHT22;69539;42.138;24.742;2023-06-19T07:13:25;32.30;30.80
80228;DHT22;69539;42.138;24.742;2023-06-19T07:15:51;32.40;30.60
80228;DHT22;69539;42.138;24.742;2023-06-19T07:18:17;32.60;30.10
80228;DHT22;69539;42.138;24.742;2023-06-19T07:20:42;32.60;30.00
80228;DHT22;69539;42.138;24.742;2023-06-19T07:23:09;32.80;30.00
80228;DHT22;69539;42.138;24.742;2023-06-19T07:25:35;32.80;29.60
80228;DHT22;69539;42.138;24.742;2023-06-19T07:28:01;32.90;29.60
80228;DHT22;69539;42.138;24.742;2023-06-19T07:30:27;33.00;29.50
80228;DHT22;69539;42.138;24.742;2023-06-19T07:32:53;33.10;29.30
80228;DHT22;69539;42.138;24.742;2023-06-19T07:35:18;33.20;29.10
80228;DHT22;69539;42.138;24.742;2023-06-19T07:37:45;33.30;29.20
80228;DHT22;69539;42.138;24.742;2023-06-19T07:40:11;33.40;29.10
80228;DHT22;69539;42.138;24.742;2023-06-19T07:42:37;33.40;28.80
80228;DHT22;69539;42.138;24.742;2023-06-19T07:45:03;33.50;28.60
80228;DHT22;69539;42.138;24.742;2023-06-19T07:47:29;33.60;28.30
80228;DHT22;69539;42.138;24.742;2023-06-19T07:49:54;33.80;28.20
80228;DHT22;69539;42.138;24.742;2023-06-19T07:52:20;33.80;28.00
80228;DHT22;69539;42.138;24.742;2023-06-19T07:54:54;33.90;28.60
80228;DHT22;69539;42.138;24.742;2023-06-19T07:57:20;33.90;28.50
80228;DHT22;69539;42.138;24.742;2023-06-19T07:59:47;34.00;27.50
80228;DHT22;69539;42.138;24.742;2023-06-19T08:02:13;34.10;27.80
80228;DHT22;69539;42.138;24.742;2023-06-19T08:04:39;34.20;28.10
80228;DHT22;69539;42.138;24.742;2023-06-19T08:07:05;34.20;27.90
80228;DHT22;69539;42.138;24.742;2023-06-19T08:09:31;34.30;27.50
80228;DHT22;69539;42.138;24.742;2023-06-19T08:11:57;34.40;27.20
80228;DHT22;69539;42.138;24.742;2023-06-19T08:14:22;34.50;26.80
80228;DHT22;69539;42.138;24.742;2023-06-19T08:16:48;34.60;26.70
80228;DHT22;69539;42.138;24.742;2023-06-19T08:19:14;34.60;26.60
80228;DHT22;69539;42.138;24.742;2023-06-19T08:21:40;34.70;26.50
80228;DHT22;69539;42.138;24.742;2023-06-19T08:24:06;34.80;26.50
80228;DHT22;69539;42.138;24.742;2023-06-19T08:26:31;34.80;26.40
80228;DHT22;69539;42.138;24.742;2023-06-19T08:28:57;34.90;26.20
80228;DHT22;69539;42.138;24.742;2023-06-19T08:31:23;35.00;26.10
80228;DHT22;69539;42.138;24.742;2023-06-19T08:33:54;35.00;25.90
80228;DHT22;69539;42.138;24.742;2023-06-19T08:36:19;35.10;25.80
80228;DHT22;69539;42.138;24.742;2023-06-19T08:38:45;35.10;25.70
80228;DHT22;69539;42.138;24.742;2023-06-19T08:41:15;35.10;25.50
80228;DHT22;69539;42.138;24.742;2023-06-19T08:43:41;35.30;25.70
80228;DHT22;69539;42.138;24.742;2023-06-19T08:46:15;35.30;26.50
80228;DHT22;69539;42.138;24.742;2023-06-19T08:48:43;35.20;26.70
80228;DHT22;69539;42.138;24.742;2023-06-19T08:51:10;35.20;26.00
80228;DHT22;69539;42.138;24.742;2023-06-19T08:53:48;35.10;25.70
80228;DHT22;69539;42.138;24.742;2023-06-19T08:56:15;35.20;25.50
80228;DHT22;69539;42.138;24.742;2023-06-19T08:58:41;35.20;25.20
80228;DHT22;69539;42.138;24.742;2023-06-19T09:01:07;35.30;25.10
80228;DHT22;69539;42.138;24.742;2023-06-19T09:03:33;35.40;24.90
80228;DHT22;69539;42.138;24.742;2023-06-19T09:06:07;35.40;24.90
80228;DHT22;69539;42.138;24.742;2023-06-19T09:08:34;35.50;24.70
80228;DHT22;69539;42.138;24.742;2023-06-19T09:11:02;35.50;24.60
80228;DHT22;69539;42.138;24.742;2023-06-19T09:13:29;35.50;24.50
80228;DHT22;69539;42.138;24.742;2023-06-19T09:15:59;35.50;24.60
80228;DHT22;69539;42.138;24.742;2023-06-19T09:18:25;35.60;24.70
80228;DHT22;69539;42.138;24.742;2023-06-19T09:20:54;35.60;24.70
80228;DHT22;69539;42.138;24.742;2023-06-19T09:23:20;35.60;24.50
80228;DHT22;69539;42.138;24.742;2023-06-19T09:25:51;35.60;24.50
80228;DHT22;69539;42.138;24.742;2023-06-19T09:28:24;35.70;24.60
80228;DHT22;69539;42.138;24.742;2023-06-19T09:30:59;35.70;24.70
80228;DHT22;69539;42.138;24.742;2023-06-19T09:33:33;35.70;24.70
80228;DHT22;69539;42.138;24.742;2023-06-19T09:36:00;35.70;24.20
80228;DHT22;69539;42.138;24.742;2023-06-19T09:38:31;35.70;24.20
80228;DHT22;69539;42.138;24.742;2023-06-19T09:41:01;35.80;24.70
80228;DHT22;69539;42.138;24.742;2023-06-19T09:43:33;36.10;25.50
80228;DHT22;69539;42.138;24.742;2023-06-19T09:45:58;36.20;25.20
80228;DHT22;69539;42.138;24.742;2023-06-19T09:48:32;36.20;24.30
80228;DHT22;69539;42.138;24.742;2023-06-19T09:51:12;36.20;24.10
80228;DHT22;69539;42.138;24.742;2023-06-19T09:53:46;36.10;24.00
80228;DHT22;69539;42.138;24.742;2023-06-19T09:56:13;36.10;23.80
80228;DHT22;69539;42.138;24.742;2023-06-19T09:58:41;36.00;23.80
80228;DHT22;69539;42.138;24.742;2023-06-19T10:01:07;35.90;24.20
80228;DHT22;69539;42.138;24.742;2023-06-19T10:03:34;35.80;24.70
80228;DHT22;69539;42.138;24.742;2023-06-19T10:06:01;35.80;25.30
80228;DHT22;69539;42.138;24.742;2023-06-19T10:08:38;35.80;25.20
80228;DHT22;69539;42.138;24.742;2023-06-19T10:11:04;35.70;25.50
80228;DHT22;69539;42.138;24.742;2023-06-19T10:13:35;35.60;25.90
80228;DHT22;69539;42.138;24.742;2023-06-19T10:16:02;35.60;25.80
80228;DHT22;69539;42.138;24.742;2023-06-19T10:18:27;35.50;25.50
80228;DHT22;69539;42.138;24.742;2023-06-19T10:20:54;35.50;24.90
80228;DHT22;69539;42.138;24.742;2023-06-19T10:23:21;35.40;24.50
80228;DHT22;69539;42.138;24.742;2023-06-19T10:28:26;35.30;24.90
80228;DHT22;69539;42.138;24.742;2023-06-19T10:31:06;35.20;24.80
80228;DHT22;69539;42.138;24.742;2023-06-19T10:33:37;35.20;26.10
80228;DHT22;69539;42.138;24.742;2023-06-19T10:36:15;35.10;26.40
80228;DHT22;69539;42.138;24.742;2023-06-19T10:38:41;35.00;25.20
80228;DHT22;69539;42.138;24.742;2023-06-19T10:41:39;34.90;24.90
80228;DHT22;69539;42.138;24.742;2023-06-19T10:44:06;34.90;24.80
80228;DHT22;69539;42.138;24.742;2023-06-19T10:46:38;34.80;24.70
80228;DHT22;69539;42.138;24.742;2023-06-19T10:49:05;34.80;24.70
80228;DHT22;69539;42.138;24.742;2023-06-19T10:51:35;34.70;24.90
80228;DHT22;69539;42.138;24.742;2023-06-19T10:54:00;34.70;24.90
80228;DHT22;69539;42.138;24.742;2023-06-19T10:56:26;34.60;24.90
80228;DHT22;69539;42.138;24.742;2023-06-19T10:59:06;34.60;24.90
80228;DHT22;69539;42.138;24.742;2023-06-19T11:01:33;34.50;24.70
80228;DHT22;69539;42.138;24.742;2023-06-19T11:04:01;34.50;25.00
80228;DHT22;69539;42.138;24.742;2023-06-19T11:06:28;34.40;25.00
80228;DHT22;69539;42.138;24.742;2023-06-19T11:08:55;34.40;25.20
80228;DHT22;69539;42.138;24.742;2023-06-19T11:11:21;34.40;25.20
80228;DHT22;69539;42.138;24.742;2023-06-19T11:13:47;34.30;25.30
80228;DHT22;69539;42.138;24.742;2023-06-19T11:16:14;34.30;25.50
80228;DHT22;69539;42.138;24.742;2023-06-19T11:18:40;34.20;25.30
80228;DHT22;69539;42.138;24.742;2023-06-19T11:21:06;34.20;25.20
80228;DHT22;69539;42.138;24.742;2023-06-19T11:23:31;34.20;25.30
80228;DHT22;69539;42.138;24.742;2023-06-19T11:26:06;34.20;25.30
80228;DHT22;69539;42.138;24.742;2023-06-19T11:28:32;34.20;25.20
80228;DHT22;69539;42.138;24.742;2023-06-19T11:31:02;34.20;25.10
80228;DHT22;69539;42.138;24.742;2023-06-19T11:33:29;34.20;25.20
80228;DHT22;69539;42.138;24.742;2023-06-19T11:36:00;34.20;25.10
80228;DHT22;69539;42.138;24.742;2023-06-19T11:38:26;34.20;25.40
80228;DHT22;69539;42.138;24.742;2023-06-19T11:40:56;34.20;25.20
80228;DHT22;69539;42.138;24.742;2023-06-19T11:43:32;34.20;25.00
80228;DHT22;69539;42.138;24.742;2023-06-19T11:46:05;34.20;24.50
80228;DHT22;69539;42.138;24.742;2023-06-19T11:48:31;34.10;24.30
80228;DHT22;69539;42.138;24.742;2023-06-19T11:50:58;34.10;24.50
80228;DHT22;69539;42.138;24.742;2023-06-19T11:53:24;34.20;24.50
80228;DHT22;69539;42.138;24.742;2023-06-19T11:55:51;34.10;24.40
80228;DHT22;69539;42.138;24.742;2023-06-19T11:58:17;34.10;24.70
80228;DHT22;69539;42.138;24.742;2023-06-19T12:00:45;34.10;24.70
80228;DHT22;69539;42.138;24.742;2023-06-19T12:03:11;34.10;24.60
80228;DHT22;69539;42.138;24.742;2023-06-19T12:05:37;34.10;24.70
80228;DHT22;69539;42.138;24.742;2023-06-19T12:08:03;34.20;24.70
80228;DHT22;69539;42.138;24.742;2023-06-19T12:10:33;34.10;24.70
80228;DHT22;69539;42.138;24.742;2023-06-19T12:12:59;34.10;24.80
80228;DHT22;69539;42.138;24.742;2023-06-19T12:15:24;34.10;24.80
80228;DHT22;69539;42.138;24.742;2023-06-19T12:17:51;34.10;24.80
80228;DHT22;69539;42.138;24.742;2023-06-19T12:20:18;34.10;24.90
80228;DHT22;69539;42.138;24.742;2023-06-19T12:22:44;34.10;26.00
80228;DHT22;69539;42.138;24.742;2023-06-19T12:25:10;34.10;25.90
80228;DHT22;69539;42.138;24.742;2023-06-19T12:27:39;34.10;25.00
80228;DHT22;69539;42.138;24.742;2023-06-19T12:30:05;34.10;24.80
80228;DHT22;69539;42.138;24.742;2023-06-19T12:32:31;34.00;24.50
80228;DHT22;69539;42.138;24.742;2023-06-19T12:34:57;34.00;24.40
80228;DHT22;69539;42.138;24.742;2023-06-19T12:37:22;33.90;23.90
80228;DHT22;69539;42.138;24.742;2023-06-19T12:39:50;33.90;23.70
80228;DHT22;69539;42.138;24.742;2023-06-19T12:42:15;34.00;24.20
80228;DHT22;69539;42.138;24.742;2023-06-19T12:44:42;33.90;24.00
80228;DHT22;69539;42.138;24.742;2023-06-19T12:47:09;33.90;23.70
80228;DHT22;69539;42.138;24.742;2023-06-19T12:49:35;33.90;23.70
80228;DHT22;69539;42.138;24.742;2023-06-19T12:52:01;33.90;23.70
80228;DHT22;69539;42.138;24.742;2023-06-19T12:54:27;33.80;23.80
80228;DHT22;69539;42.138;24.742;2023-06-19T12:56:53;33.80;23.90
80228;DHT22;69539;42.138;24.742;2023-06-19T12:59:19;33.80;23.60
80228;DHT22;69539;42.138;24.742;2023-06-19T13:01:45;33.80;23.60
80228;DHT22;69539;42.138;24.742;2023-06-19T13:04:11;33.80;23.60
80228;DHT22;69539;42.138;24.742;2023-06-19T13:06:38;33.70;23.60
80228;DHT22;69539;42.138;24.742;2023-06-19T13:09:04;33.70;23.70
80228;DHT22;69539;42.138;24.742;2023-06-19T13:11:31;33.80;23.70
80228;DHT22;69539;42.138;24.742;2023-06-19T13:13:57;33.80;23.70
80228;DHT22;69539;42.138;24.742;2023-06-19T13:16:22;33.70;23.70
80228;DHT22;69539;42.138;24.742;2023-06-19T13:18:51;33.70;23.80
80228;DHT22;69539;42.138;24.742;2023-06-19T13:21:17;33.70;23.90
80228;DHT22;69539;42.138;24.742;2023-06-19T13:23:43;33.70;23.90
80228;DHT22;69539;42.138;24.742;2023-06-19T13:26:09;33.70;23.70
80228;DHT22;69539;42.138;24.742;2023-06-19T13:28:35;33.70;23.50
80228;DHT22;69539;42.138;24.742;2023-06-19T13:31:01;33.70;23.70
80228;DHT22;69539;42.138;24.742;2023-06-19T13:33:26;33.60;24.00
80228;DHT22;69539;42.138;24.742;2023-06-19T13:35:52;33.60;24.10
80228;DHT22;69539;42.138;24.742;2023-06-19T13:38:18;33.60;24.00
80228;DHT22;69539;42.138;24.742;2023-06-19T13:40:43;33.60;23.80
80228;DHT22;69539;42.138;24.742;2023-06-19T13:43:09;33.60;23.70
80228;DHT22;69539;42.138;24.742;2023-06-19T13:45:35;33.60;23.70
80228;DHT22;69539;42.138;24.742;2023-06-19T13:48:01;33.60;23.50
80228;DHT22;69539;42.138;24.742;2023-06-19T13:50:27;33.50;23.70
80228;DHT22;69539;42.138;24.742;2023-06-19T13:52:53;33.50;24.00
80228;DHT22;69539;42.138;24.742;2023-06-19T13:55:20;33.50;24.40
80228;DHT22;69539;42.138;24.742;2023-06-19T13:57:45;33.50;25.00
80228;DHT22;69539;42.138;24.742;2023-06-19T14:00:12;33.50;25.60
80228;DHT22;69539;42.138;24.742;2023-06-19T14:02:38;33.50;25.90
80228;DHT22;69539;42.138;24.742;2023-06-19T14:05:05;33.40;25.80
80228;DHT22;69539;42.138;24.742;2023-06-19T14:07:32;33.50;25.90
80228;DHT22;69539;42.138;24.742;2023-06-19T14:09:57;33.50;25.90
80228;DHT22;69539;42.138;24.742;2023-06-19T14:12:23;33.40;26.40
80228;DHT22;69539;42.138;24.742;2023-06-19T14:14:49;33.40;26.30
80228;DHT22;69539;42.138;24.742;2023-06-19T14:17:14;33.40;26.40
80228;DHT22;69539;42.138;24.742;2023-06-19T14:19:40;33.30;26.50
80228;DHT22;69539;42.138;24.742;2023-06-19T14:22:06;33.30;26.40
80228;DHT22;69539;42.138;24.742;2023-06-19T14:24:32;33.30;26.50
80228;DHT22;69539;42.138;24.742;2023-06-19T14:26:57;33.30;26.50
80228;DHT22;69539;42.138;24.742;2023-06-19T14:29:23;33.30;26.50
80228;DHT22;69539;42.138;24.742;2023-06-19T14:31:51;33.20;26.40
80228;DHT22;69539;42.138;24.742;2023-06-19T14:34:18;33.20;26.40
80228;DHT22;69539;42.138;24.742;2023-06-19T14:36:44;33.20;26.40
80228;DHT22;69539;42.138;24.742;2023-06-19T14:39:09;33.20;26.40
80228;DHT22;69539;42.138;24.742;2023-06-19T14:41:37;33.20;26.50
80228;DHT22;69539;42.138;24.742;2023-06-19T14:44:03;33.10;26.40
80228;DHT22;69539;42.138;24.742;2023-06-19T14:46:29;33.10;26.30
80228;DHT22;69539;42.138;24.742;2023-06-19T14:48:55;33.10;26.30
80228;DHT22;69539;42.138;24.742;2023-06-19T14:51:23;33.10;26.50
80228;DHT22;69539;42.138;24.742;2023-06-19T14:53:48;33.00;26.40
80228;DHT22;69539;42.138;24.742;2023-06-19T14:56:14;33.00;26.40
80228;DHT22;69539;42.138;24.742;2023-06-19T14:58:40;33.00;26.30
80228;DHT22;69539;42.138;24.742;2023-06-19T15:01:05;33.00;26.30
80228;DHT22;69539;42.138;24.742;2023-06-19T15:03:31;33.00;26.40
80228;DHT22;69539;42.138;24.742;2023-06-19T15:05:57;33.00;26.50
80228;DHT22;69539;42.138;24.742;2023-06-19T15:08:22;33.00;26.40
80228;DHT22;69539;42.138;24.742;2023-06-19T15:10:49;33.00;26.30
80228;DHT22;69539;42.138;24.742;2023-06-19T15:13:15;33.00;26.30
80228;DHT22;69539;42.138;24.742;2023-06-19T15:15:43;33.00;26.50
80228;DHT22;69539;42.138;24.742;2023-06-19T15:18:09;32.90;26.70